sensor_id;sensor_type;location;lat;lon;timestamp;P1;durP1;ratioP1;P2;durP2;ratioP2
20369;SDS011;10344;47.592;9.600;2024-01-06T00:00:41;3.63;;;3.28;;
20369;SDS011;10344;47.592;9.600;2024-01-06T00:03:09;3.45;;;3.08;;
20369;SDS011;10344;47.592;9.600;2024-01-06T00:05:34;4.07;;;3.53;;
20369;SDS011;10344;47.592;9.600;2024-01-06T00:08:00;4.03;;;3.30;;
20369;SDS011;10344;47.592;9.600;2024-01-06T00:10:27;4.78;;;3.20;;
20369;SDS011;10344;47.592;9.600;2024-01-06T00:12:52;4.40;;;3.25;;
20369;SDS011;10344;47.592;9.600;2024-01-06T00:15:18;3.42;;;3.08;;
20369;SDS011;10344;47.592;9.600;2024-01-06T00:17:46;3.20;;;2.85;;
20369;SDS011;10344;47.592;9.600;2024-01-06T00:20:12;4.70;;;2.80;;
20369;SDS011;10344;47.592;9.600;2024-01-06T00:22:37;3.00;;;2.67;;
20369;SDS011;10344;47.592;9.600;2024-01-06T00:25:06;3.25;;;2.30;;
20369;SDS011;10344;47.592;9.600;2024-01-06T00:27:32;3.10;;;2.65;;
20369;SDS011;10344;47.592;9.600;2024-01-06T00:29:58;2.50;;;2.30;;
20369;SDS011;10344;47.592;9.600;2024-01-06T00:32:23;2.50;;;2.30;;
20369;SDS011;10344;47.592;9.600;2024-01-06T00:34:49;2.92;;;2.63;;
20369;SDS011;10344;47.592;9.600;2024-01-06T00:37:14;3.17;;;2.30;;
20369;SDS011;10344;47.592;9.600;2024-01-06T00:39:40;3.33;;;2.40;;
20369;SDS011;10344;47.592;9.600;2024-01-06T00:42:06;2.70;;;2.25;;
20369;SDS011;10344;47.592;9.600;2024-01-06T00:44:32;3.50;;;2.47;;
20369;SDS011;10344;47.592;9.600;2024-01-06T00:46:58;3.42;;;2.45;;
20369;SDS011;10344;47.592;9.600;2024-01-06T00:49:24;3.57;;;2.57;;
20369;SDS011;10344;47.592;9.600;2024-01-06T00:51:54;2.55;;;2.20;;
20369;SDS011;10344;47.592;9.600;2024-01-06T00:54:20;3.65;;;2.53;;
20369;SDS011;10344;47.592;9.600;2024-01-06T00:56:45;3.25;;;2.58;;
20369;SDS011;10344;47.592;9.600;2024-01-06T00:59:13;2.83;;;2.33;;
20369;SDS011;10344;47.592;9.600;2024-01-06T01:01:39;4.00;;;2.30;;
20369;SDS011;10344;47.592;9.600;2024-01-06T01:04:07;3.88;;;2.08;;
20369;SDS011;10344;47.592;9.600;2024-01-06T01:06:35;2.78;;;1.98;;
20369;SDS011;10344;47.592;9.600;2024-01-06T01:09:02;2.40;;;2.13;;
20369;SDS011;10344;47.592;9.600;2024-01-06T01:11:27;2.50;;;1.60;;
20369;SDS011;10344;47.592;9.600;2024-01-06T01:13:53;1.85;;;1.60;;
20369;SDS011;10344;47.592;9.600;2024-01-06T01:16:21;1.95;;;1.58;;
20369;SDS011;10344;47.592;9.600;2024-01-06T01:18:47;2.07;;;1.47;;
20369;SDS011;10344;47.592;9.600;2024-01-06T01:21:13;2.13;;;1.50;;
20369;SDS011;10344;47.592;9.600;2024-01-06T01:23:41;2.33;;;1.67;;
20369;SDS011;10344;47.592;9.600;2024-01-06T01:26:08;1.80;;;1.70;;
20369;SDS011;10344;47.592;9.600;2024-01-06T01:28:36;2.50;;;1.90;;
20369;SDS011;10344;47.592;9.600;2024-01-06T01:31:01;1.90;;;1.60;;
20369;SDS011;10344;47.592;9.600;2024-01-06T01:33:27;1.80;;;1.70;;
20369;SDS011;10344;47.592;9.600;2024-01-06T01:35:55;1.70;;;1.58;;
20369;SDS011;10344;47.592;9.600;2024-01-06T01:38:20;2.13;;;1.87;;
20369;SDS011;10344;47.592;9.600;2024-01-06T01:40:46;2.28;;;1.80;;
20369;SDS011;10344;47.592;9.600;2024-01-06T01:43:20;1.73;;;1.60;;
20369;SDS011;10344;47.592;9.600;2024-01-06T01:45:53;1.90;;;1.80;;
20369;SDS011;10344;47.592;9.600;2024-01-06T01:48:19;2.00;;;1.80;;
20369;SDS011;10344;47.592;9.600;2024-01-06T01:50:46;2.13;;;1.90;;
20369;SDS011;10344;47.592;9.600;2024-01-06T01:53:17;1.73;;;1.63;;
20369;SDS011;10344;47.592;9.600;2024-01-06T01:55:45;2.25;;;2.00;;
20369;SDS011;10344;47.592;9.600;2024-01-06T01:58:12;2.03;;;1.70;;
20369;SDS011;10344;47.592;9.600;2024-01-06T02:00:38;1.90;;;1.60;;
20369;SDS011;10344;47.592;9.600;2024-01-06T02:03:04;1.70;;;1.60;;
20369;SDS011;10344;47.592;9.600;2024-01-06T02:05:31;1.60;;;1.50;;
20369;SDS011;10344;47.592;9.600;2024-01-06T02:08:05;1.50;;;1.40;;
20369;SDS011;10344;47.592;9.600;2024-01-06T02:10:31;1.10;;;1.05;;
20369;SDS011;10344;47.592;9.600;2024-01-06T02:12:56;1.20;;;1.10;;
20369;SDS011;10344;47.592;9.600;2024-01-06T02:15:22;0.98;;;0.98;;
20369;SDS011;10344;47.592;9.600;2024-01-06T02:17:48;0.53;;;0.53;;
20369;SDS011;10344;47.592;9.600;2024-01-06T02:20:16;0.70;;;0.70;;
20369;SDS011;10344;47.592;9.600;2024-01-06T02:22:45;0.93;;;0.80;;
20369;SDS011;10344;47.592;9.600;2024-01-06T02:25:13;1.02;;;0.82;;
20369;SDS011;10344;47.592;9.600;2024-01-06T02:27:39;0.80;;;0.80;;
20369;SDS011;10344;47.592;9.600;2024-01-06T02:30:07;1.33;;;0.85;;
20369;SDS011;10344;47.592;9.600;2024-01-06T02:32:37;0.90;;;0.90;;
20369;SDS011;10344;47.592;9.600;2024-01-06T02:35:03;0.85;;;0.85;;
20369;SDS011;10344;47.592;9.600;2024-01-06T02:37:28;0.93;;;0.93;;
20369;SDS011;10344;47.592;9.600;2024-01-06T02:39:54;0.80;;;0.80;;
20369;SDS011;10344;47.592;9.600;2024-01-06T02:42:22;0.75;;;0.75;;
20369;SDS011;10344;47.592;9.600;2024-01-06T02:44:49;0.90;;;0.90;;
20369;SDS011;10344;47.592;9.600;2024-01-06T02:47:16;0.70;;;0.70;;
20369;SDS011;10344;47.592;9.600;2024-01-06T02:49:41;0.80;;;0.80;;
20369;SDS011;10344;47.592;9.600;2024-01-06T02:52:07;0.60;;;0.60;;
20369;SDS011;10344;47.592;9.600;2024-01-06T02:54:33;0.73;;;0.65;;
20369;SDS011;10344;47.592;9.600;2024-01-06T02:56:58;0.70;;;0.70;;
20369;SDS011;10344;47.592;9.600;2024-01-06T02:59:24;0.93;;;0.80;;
20369;SDS011;10344;47.592;9.600;2024-01-06T03:01:52;0.70;;;0.70;;
20369;SDS011;10344;47.592;9.600;2024-01-06T03:04:17;0.80;;;0.80;;
20369;SDS011;10344;47.592;9.600;2024-01-06T03:06:43;0.68;;;0.68;;
20369;SDS011;10344;47.592;9.600;2024-01-06T03:09:11;1.13;;;0.82;;
20369;SDS011;10344;47.592;9.600;2024-01-06T03:11:37;0.70;;;0.70;;
20369;SDS011;10344;47.592;9.600;2024-01-06T03:14:04;0.90;;;0.90;;
20369;SDS011;10344;47.592;9.600;2024-01-06T03:16:30;0.90;;;0.90;;
20369;SDS011;10344;47.592;9.600;2024-01-06T03:18:55;1.08;;;1.08;;
20369;SDS011;10344;47.592;9.600;2024-01-06T03:21:21;1.40;;;1.30;;
20369;SDS011;10344;47.592;9.600;2024-01-06T03:23:49;1.40;;;1.30;;
20369;SDS011;10344;47.592;9.600;2024-01-06T03:26:16;1.30;;;1.20;;
20369;SDS011;10344;47.592;9.600;2024-01-06T03:28:44;1.35;;;1.25;;
20369;SDS011;10344;47.592;9.600;2024-01-06T03:31:10;1.73;;;1.30;;
20369;SDS011;10344;47.592;9.600;2024-01-06T03:33:38;1.50;;;1.40;;
20369;SDS011;10344;47.592;9.600;2024-01-06T03:36:06;1.75;;;1.20;;
20369;SDS011;10344;47.592;9.600;2024-01-06T03:38:32;1.45;;;1.35;;
20369;SDS011;10344;47.592;9.600;2024-01-06T03:40:58;1.67;;;1.40;;
20369;SDS011;10344;47.592;9.600;2024-01-06T03:43:24;1.58;;;1.48;;
20369;SDS011;10344;47.592;9.600;2024-01-06T03:45:49;1.50;;;1.40;;
20369;SDS011;10344;47.592;9.600;2024-01-06T03:48:17;1.80;;;1.40;;
20369;SDS011;10344;47.592;9.600;2024-01-06T03:50:45;1.88;;;1.50;;
20369;SDS011;10344;47.592;9.600;2024-01-06T03:53:11;1.60;;;1.50;;
20369;SDS011;10344;47.592;9.600;2024-01-06T03:55:36;1.90;;;1.80;;
20369;SDS011;10344;47.592;9.600;2024-01-06T03:58:02;2.17;;;1.98;;
20369;SDS011;10344;47.592;9.600;2024-01-06T04:00:28;2.20;;;2.00;;
20369;SDS011;10344;47.592;9.600;2024-01-06T04:02:53;2.20;;;2.00;;
20369;SDS011;10344;47.592;9.600;2024-01-06T04:05:19;2.30;;;2.10;;
20369;SDS011;10344;47.592;9.600;2024-01-06T04:07:44;2.25;;;2.05;;
20369;SDS011;10344;47.592;9.600;2024-01-06T04:10:10;2.07;;;1.90;;
20369;SDS011;10344;47.592;9.600;2024-01-06T04:12:36;2.20;;;2.00;;
20369;SDS011;10344;47.592;9.600;2024-01-06T04:15:04;1.90;;;1.80;;
20369;SDS011;10344;47.592;9.600;2024-01-06T04:17:32;2.00;;;1.90;;
20369;SDS011;10344;47.592;9.600;2024-01-06T04:19:58;1.90;;;1.80;;
20369;SDS011;10344;47.592;9.600;2024-01-06T04:22:23;1.80;;;1.70;;
20369;SDS011;10344;47.592;9.600;2024-01-06T04:24:49;1.80;;;1.60;;
20369;SDS011;10344;47.592;9.600;2024-01-06T04:27:15;1.60;;;1.50;;
20369;SDS011;10344;47.592;9.600;2024-01-06T04:29:40;1.70;;;1.60;;
20369;SDS011;10344;47.592;9.600;2024-01-06T04:32:06;1.70;;;1.60;;
20369;SDS011;10344;47.592;9.600;2024-01-06T04:34:34;1.20;;;1.10;;
20369;SDS011;10344;47.592;9.600;2024-01-06T04:36:59;1.10;;;1.10;;
20369;SDS011;10344;47.592;9.600;2024-01-06T04:39:25;1.37;;;1.20;;
20369;SDS011;10344;47.592;9.600;2024-01-06T04:41:50;1.10;;;1.00;;
20369;SDS011;10344;47.592;9.600;2024-01-06T04:44:19;1.20;;;1.10;;
20369;SDS011;10344;47.592;9.600;2024-01-06T04:46:45;1.10;;;1.00;;
20369;SDS011;10344;47.592;9.600;2024-01-06T04:49:13;1.00;;;1.00;;
20369;SDS011;10344;47.592;9.600;2024-01-06T04:51:39;0.93;;;0.93;;
20369;SDS011;10344;47.592;9.600;2024-01-06T04:54:04;1.00;;;1.00;;
20369;SDS011;10344;47.592;9.600;2024-01-06T04:56:31;1.40;;;1.10;;
20369;SDS011;10344;47.592;9.600;2024-01-06T04:59:02;1.00;;;1.00;;
20369;SDS011;10344;47.592;9.600;2024-01-06T05:01:28;1.10;;;1.00;;
20369;SDS011;10344;47.592;9.600;2024-01-06T05:03:53;1.00;;;1.00;;
20369;SDS011;10344;47.592;9.600;2024-01-06T05:06:20;1.00;;;0.90;;
20369;SDS011;10344;47.592;9.600;2024-01-06T05:08:45;0.70;;;0.70;;
20369;SDS011;10344;47.592;9.600;2024-01-06T05:11:11;0.80;;;0.80;;
20369;SDS011;10344;47.592;9.600;2024-01-06T05:13:37;0.80;;;0.70;;
20369;SDS011;10344;47.592;9.600;2024-01-06T05:16:03;0.98;;;0.88;;
20369;SDS011;10344;47.592;9.600;2024-01-06T05:18:31;0.80;;;0.80;;
20369;SDS011;10344;47.592;9.600;2024-01-06T05:20:57;0.70;;;0.70;;
20369;SDS011;10344;47.592;9.600;2024-01-06T05:23:26;0.90;;;0.90;;
20369;SDS011;10344;47.592;9.600;2024-01-06T05:25:52;1.13;;;0.97;;
20369;SDS011;10344;47.592;9.600;2024-01-06T05:28:20;0.98;;;0.98;;
20369;SDS011;10344;47.592;9.600;2024-01-06T05:30:50;1.00;;;1.00;;
20369;SDS011;10344;47.592;9.600;2024-01-06T05:33:16;0.80;;;0.80;;
20369;SDS011;10344;47.592;9.600;2024-01-06T05:35:44;1.13;;;1.00;;
20369;SDS011;10344;47.592;9.600;2024-01-06T05:38:09;1.03;;;0.97;;
20369;SDS011;10344;47.592;9.600;2024-01-06T05:40:37;1.40;;;0.98;;
20369;SDS011;10344;47.592;9.600;2024-01-06T05:43:03;0.83;;;0.83;;
20369;SDS011;10344;47.592;9.600;2024-01-06T05:45:29;0.90;;;0.90;;
20369;SDS011;10344;47.592;9.600;2024-01-06T05:47:57;1.08;;;1.00;;
20369;SDS011;10344;47.592;9.600;2024-01-06T05:50:22;1.43;;;1.33;;
20369;SDS011;10344;47.592;9.600;2024-01-06T05:52:50;1.50;;;1.40;;
20369;SDS011;10344;47.592;9.600;2024-01-06T05:55:19;1.77;;;1.60;;
20369;SDS011;10344;47.592;9.600;2024-01-06T05:57:48;1.60;;;1.50;;
20369;SDS011;10344;47.592;9.600;2024-01-06T06:00:13;1.42;;;1.25;;
20369;SDS011;10344;47.592;9.600;2024-01-06T06:02:40;1.55;;;1.45;;
20369;SDS011;10344;47.592;9.600;2024-01-06T06:05:10;1.45;;;1.35;;
20369;SDS011;10344;47.592;9.600;2024-01-06T06:07:41;2.00;;;1.50;;
20369;SDS011;10344;47.592;9.600;2024-01-06T06:10:08;1.83;;;1.40;;
20369;SDS011;10344;47.592;9.600;2024-01-06T06:12:35;1.40;;;1.30;;
20369;SDS011;10344;47.592;9.600;2024-01-06T06:15:03;1.45;;;1.35;;
20369;SDS011;10344;47.592;9.600;2024-01-06T06:17:35;1.45;;;1.35;;
20369;SDS011;10344;47.592;9.600;2024-01-06T06:20:01;1.40;;;1.30;;
20369;SDS011;10344;47.592;9.600;2024-01-06T06:22:30;1.00;;;1.00;;
20369;SDS011;10344;47.592;9.600;2024-01-06T06:24:56;1.00;;;1.00;;
20369;SDS011;10344;47.592;9.600;2024-01-06T06:27:23;1.02;;;1.00;;
20369;SDS011;10344;47.592;9.600;2024-01-06T06:29:49;1.10;;;1.10;;
20369;SDS011;10344;47.592;9.600;2024-01-06T06:32:17;1.00;;;1.00;;
20369;SDS011;10344;47.592;9.600;2024-01-06T06:34:42;1.30;;;1.20;;
20369;SDS011;10344;47.592;9.600;2024-01-06T06:37:08;2.28;;;1.20;;
20369;SDS011;10344;47.592;9.600;2024-01-06T06:39:36;1.13;;;1.13;;
20369;SDS011;10344;47.592;9.600;2024-01-06T06:42:07;1.27;;;1.20;;
20369;SDS011;10344;47.592;9.600;2024-01-06T06:44:32;1.10;;;1.10;;
20369;SDS011;10344;47.592;9.600;2024-01-06T06:46:58;1.10;;;1.10;;
20369;SDS011;10344;47.592;9.600;2024-01-06T06:49:24;1.27;;;1.17;;
20369;SDS011;10344;47.592;9.600;2024-01-06T06:51:49;1.50;;;1.40;;
20369;SDS011;10344;47.592;9.600;2024-01-06T06:54:15;1.43;;;1.33;;
20369;SDS011;10344;47.592;9.600;2024-01-06T06:56:44;1.60;;;1.50;;
20369;SDS011;10344;47.592;9.600;2024-01-06T06:59:09;1.80;;;1.70;;
20369;SDS011;10344;47.592;9.600;2024-01-06T07:01:35;1.90;;;1.70;;
20369;SDS011;10344;47.592;9.600;2024-01-06T07:04:02;2.10;;;2.00;;
20369;SDS011;10344;47.592;9.600;2024-01-06T07:06:27;3.20;;;2.30;;
20369;SDS011;10344;47.592;9.600;2024-01-06T07:08:54;2.35;;;2.15;;
20369;SDS011;10344;47.592;9.600;2024-01-06T07:11:20;2.67;;;2.08;;
20369;SDS011;10344;47.592;9.600;2024-01-06T07:13:49;2.70;;;2.20;;
20369;SDS011;10344;47.592;9.600;2024-01-06T07:16:17;2.42;;;2.22;;
20369;SDS011;10344;47.592;9.600;2024-01-06T07:18:46;2.30;;;2.10;;
20369;SDS011;10344;47.592;9.600;2024-01-06T07:21:14;2.75;;;2.25;;
20369;SDS011;10344;47.592;9.600;2024-01-06T07:23:39;2.83;;;2.63;;
20369;SDS011;10344;47.592;9.600;2024-01-06T07:26:05;2.92;;;2.63;;
20369;SDS011;10344;47.592;9.600;2024-01-06T07:28:34;3.80;;;2.80;;
20369;SDS011;10344;47.592;9.600;2024-01-06T07:31:02;3.58;;;2.70;;
20369;SDS011;10344;47.592;9.600;2024-01-06T07:33:30;2.72;;;2.50;;
20369;SDS011;10344;47.592;9.600;2024-01-06T07:35:56;3.10;;;2.72;;
20369;SDS011;10344;47.592;9.600;2024-01-06T07:38:24;3.20;;;2.90;;
20369;SDS011;10344;47.592;9.600;2024-01-06T07:40:50;2.78;;;2.58;;
20369;SDS011;10344;47.592;9.600;2024-01-06T07:43:19;2.95;;;2.65;;
20369;SDS011;10344;47.592;9.600;2024-01-06T07:45:45;3.10;;;2.80;;
20369;SDS011;10344;47.592;9.600;2024-01-06T07:48:13;3.08;;;2.78;;
20369;SDS011;10344;47.592;9.600;2024-01-06T07:50:40;3.05;;;2.75;;
20369;SDS011;10344;47.592;9.600;2024-01-06T07:53:05;3.10;;;2.80;;
20369;SDS011;10344;47.592;9.600;2024-01-06T07:55:31;2.90;;;2.70;;
20369;SDS011;10344;47.592;9.600;2024-01-06T07:57:57;3.20;;;2.90;;
20369;SDS011;10344;47.592;9.600;2024-01-06T08:00:22;3.40;;;3.10;;
20369;SDS011;10344;47.592;9.600;2024-01-06T08:02:48;3.20;;;2.90;;
20369;SDS011;10344;47.592;9.600;2024-01-06T08:05:14;3.20;;;2.80;;
20369;SDS011;10344;47.592;9.600;2024-01-06T08:07:39;2.70;;;2.50;;
20369;SDS011;10344;47.592;9.600;2024-01-06T08:10:07;2.80;;;2.60;;
20369;SDS011;10344;47.592;9.600;2024-01-06T08:12:36;2.97;;;2.67;;
20369;SDS011;10344;47.592;9.600;2024-01-06T08:15:04;2.88;;;2.65;;
20369;SDS011;10344;47.592;9.600;2024-01-06T08:17:30;2.83;;;2.53;;
20369;SDS011;10344;47.592;9.600;2024-01-06T08:19:58;2.75;;;2.55;;
20369;SDS011;10344;47.592;9.600;2024-01-06T08:22:26;3.20;;;2.90;;
20369;SDS011;10344;47.592;9.600;2024-01-06T08:24:54;2.80;;;2.60;;
20369;SDS011;10344;47.592;9.600;2024-01-06T08:27:20;4.13;;;3.10;;
20369;SDS011;10344;47.592;9.600;2024-01-06T08:29:49;3.60;;;3.13;;
20369;SDS011;10344;47.592;9.600;2024-01-06T08:32:15;3.97;;;3.50;;
20369;SDS011;10344;47.592;9.600;2024-01-06T08:34:41;4.00;;;3.55;;
20369;SDS011;10344;47.592;9.600;2024-01-06T08:37:07;3.97;;;3.55;;
20369;SDS011;10344;47.592;9.600;2024-01-06T08:39:33;4.38;;;3.60;;
20369;SDS011;10344;47.592;9.600;2024-01-06T08:41:58;4.13;;;3.73;;
20369;SDS011;10344;47.592;9.600;2024-01-06T08:44:24;4.27;;;3.87;;
20369;SDS011;10344;47.592;9.600;2024-01-06T08:46:50;4.30;;;3.90;;
20369;SDS011;10344;47.592;9.600;2024-01-06T08:49:17;4.05;;;3.65;;
20369;SDS011;10344;47.592;9.600;2024-01-06T08:51:45;4.20;;;3.80;;
20369;SDS011;10344;47.592;9.600;2024-01-06T08:54:11;5.97;;;4.63;;
20369;SDS011;10344;47.592;9.600;2024-01-06T08:56:37;5.73;;;4.80;;
20369;SDS011;10344;47.592;9.600;2024-01-06T08:59:03;5.97;;;5.10;;
20369;SDS011;10344;47.592;9.600;2024-01-06T09:01:29;5.50;;;4.60;;
20369;SDS011;10344;47.592;9.600;2024-01-06T09:03:56;5.07;;;4.53;;
20369;SDS011;10344;47.592;9.600;2024-01-06T09:06:22;6.28;;;5.25;;
20369;SDS011;10344;47.592;9.600;2024-01-06T09:08:48;6.23;;;5.10;;
20369;SDS011;10344;47.592;9.600;2024-01-06T09:11:14;4.85;;;4.28;;
20369;SDS011;10344;47.592;9.600;2024-01-06T09:13:40;5.87;;;4.70;;
20369;SDS011;10344;47.592;9.600;2024-01-06T09:16:05;4.47;;;4.07;;
20369;SDS011;10344;47.592;9.600;2024-01-06T09:18:31;5.60;;;4.57;;
20369;SDS011;10344;47.592;9.600;2024-01-06T09:20:57;5.05;;;4.45;;
20369;SDS011;10344;47.592;9.600;2024-01-06T09:23:22;4.83;;;4.33;;
20369;SDS011;10344;47.592;9.600;2024-01-06T09:25:48;5.00;;;4.40;;
20369;SDS011;10344;47.592;9.600;2024-01-06T09:28:29;4.88;;;4.13;;
20369;SDS011;10344;47.592;9.600;2024-01-06T09:30:57;5.10;;;4.03;;
20369;SDS011;10344;47.592;9.600;2024-01-06T09:33:23;4.30;;;3.90;;
20369;SDS011;10344;47.592;9.600;2024-01-06T09:35:51;4.60;;;4.00;;
20369;SDS011;10344;47.592;9.600;2024-01-06T09:38:17;4.30;;;3.45;;
20369;SDS011;10344;47.592;9.600;2024-01-06T09:40:43;4.15;;;3.50;;
20369;SDS011;10344;47.592;9.600;2024-01-06T09:43:12;3.30;;;3.00;;
20369;SDS011;10344;47.592;9.600;2024-01-06T09:45:40;2.92;;;2.60;;
20369;SDS011;10344;47.592;9.600;2024-01-06T09:48:12;3.20;;;2.90;;
20369;SDS011;10344;47.592;9.600;2024-01-06T09:50:40;2.60;;;2.40;;
20369;SDS011;10344;47.592;9.600;2024-01-06T09:53:08;2.60;;;2.40;;
20369;SDS011;10344;47.592;9.600;2024-01-06T09:55:37;2.80;;;2.50;;
20369;SDS011;10344;47.592;9.600;2024-01-06T09:58:04;3.33;;;2.63;;
20369;SDS011;10344;47.592;9.600;2024-01-06T10:00:31;2.92;;;2.65;;
20369;SDS011;10344;47.592;9.600;2024-01-06T10:02:57;2.25;;;1.85;;
20369;SDS011;10344;47.592;9.600;2024-01-06T10:05:23;1.85;;;1.75;;
20369;SDS011;10344;47.592;9.600;2024-01-06T10:07:49;2.17;;;1.80;;
20369;SDS011;10344;47.592;9.600;2024-01-06T10:10:15;2.30;;;2.10;;
20369;SDS011;10344;47.592;9.600;2024-01-06T10:12:41;2.42;;;1.40;;
20369;SDS011;10344;47.592;9.600;2024-01-06T10:15:08;1.40;;;1.30;;
20369;SDS011;10344;47.592;9.600;2024-01-06T10:17:43;1.70;;;1.30;;
20369;SDS011;10344;47.592;9.600;2024-01-06T10:20:10;1.90;;;1.77;;
20369;SDS011;10344;47.592;9.600;2024-01-06T10:22:37;2.33;;;1.67;;
20369;SDS011;10344;47.592;9.600;2024-01-06T10:25:05;2.42;;;1.98;;
20369;SDS011;10344;47.592;9.600;2024-01-06T10:27:39;2.22;;;1.90;;
20369;SDS011;10344;47.592;9.600;2024-01-06T10:30:06;1.95;;;1.60;;
20369;SDS011;10344;47.592;9.600;2024-01-06T10:32:33;2.63;;;2.10;;
20369;SDS011;10344;47.592;9.600;2024-01-06T10:35:03;2.63;;;2.10;;
20369;SDS011;10344;47.592;9.600;2024-01-06T10:37:30;2.55;;;2.03;;
20369;SDS011;10344;47.592;9.600;2024-01-06T10:40:08;2.20;;;2.00;;
20369;SDS011;10344;47.592;9.600;2024-01-06T10:42:36;2.60;;;2.25;;
20369;SDS011;10344;47.592;9.600;2024-01-06T10:45:07;2.47;;;2.20;;
20369;SDS011;10344;47.592;9.600;2024-01-06T10:47:35;2.25;;;2.05;;
20369;SDS011;10344;47.592;9.600;2024-01-06T10:50:05;2.65;;;2.03;;
20369;SDS011;10344;47.592;9.600;2024-01-06T10:52:32;2.87;;;2.40;;
20369;SDS011;10344;47.592;9.600;2024-01-06T10:55:00;2.30;;;2.10;;
20369;SDS011;10344;47.592;9.600;2024-01-06T10:57:29;2.17;;;1.98;;
20369;SDS011;10344;47.592;9.600;2024-01-06T10:59:57;2.28;;;2.08;;
20369;SDS011;10344;47.592;9.600;2024-01-06T11:02:24;3.35;;;2.47;;
20369;SDS011;10344;47.592;9.600;2024-01-06T11:04:53;2.40;;;2.20;;
20369;SDS011;10344;47.592;9.600;2024-01-06T11:07:23;2.08;;;1.88;;
20369;SDS011;10344;47.592;9.600;2024-01-06T11:10:06;2.58;;;2.00;;
20369;SDS011;10344;47.592;9.600;2024-01-06T11:12:37;2.28;;;1.98;;
20369;SDS011;10344;47.592;9.600;2024-01-06T11:15:02;2.70;;;1.80;;
20369;SDS011;10344;47.592;9.600;2024-01-06T11:17:50;1.67;;;1.55;;
20369;SDS011;10344;47.592;9.600;2024-01-06T11:20:21;1.50;;;1.40;;
20369;SDS011;10344;47.592;9.600;2024-01-06T11:22:47;1.60;;;1.50;;
20369;SDS011;10344;47.592;9.600;2024-01-06T11:25:16;1.38;;;1.27;;
20369;SDS011;10344;47.592;9.600;2024-01-06T11:27:44;2.20;;;2.00;;
20369;SDS011;10344;47.592;9.600;2024-01-06T11:30:21;1.75;;;1.65;;
20369;SDS011;10344;47.592;9.600;2024-01-06T11:32:51;2.40;;;2.20;;
20369;SDS011;10344;47.592;9.600;2024-01-06T11:35:18;2.25;;;1.90;;
20369;SDS011;10344;47.592;9.600;2024-01-06T11:42:56;2.30;;;1.90;;
20369;SDS011;10344;47.592;9.600;2024-01-06T11:45:24;2.60;;;1.95;;
20369;SDS011;10344;47.592;9.600;2024-01-06T11:47:50;2.33;;;2.05;;
20369;SDS011;10344;47.592;9.600;2024-01-06T11:50:20;2.00;;;1.87;;
20369;SDS011;10344;47.592;9.600;2024-01-06T11:52:46;2.58;;;2.20;;
20369;SDS011;10344;47.592;9.600;2024-01-06T11:55:14;2.22;;;2.03;;
20369;SDS011;10344;47.592;9.600;2024-01-06T11:57:43;2.30;;;2.10;;
20369;SDS011;10344;47.592;9.600;2024-01-06T12:00:14;2.05;;;1.83;;
20369;SDS011;10344;47.592;9.600;2024-01-06T12:02:40;1.85;;;1.75;;
20369;SDS011;10344;47.592;9.600;2024-01-06T12:05:11;1.80;;;1.70;;
20369;SDS011;10344;47.592;9.600;2024-01-06T12:07:39;2.10;;;1.77;;
20369;SDS011;10344;47.592;9.600;2024-01-06T12:10:07;2.20;;;2.00;;
20369;SDS011;10344;47.592;9.600;2024-01-06T12:12:33;1.92;;;1.75;;
20369;SDS011;10344;47.592;9.600;2024-01-06T12:14:59;1.90;;;1.70;;
20369;SDS011;10344;47.592;9.600;2024-01-06T12:17:27;2.35;;;2.15;;
20369;SDS011;10344;47.592;9.600;2024-01-06T12:19:54;2.13;;;1.92;;
20369;SDS011;10344;47.592;9.600;2024-01-06T12:22:20;2.00;;;1.90;;
20369;SDS011;10344;47.592;9.600;2024-01-06T12:24:49;2.00;;;1.70;;
20369;SDS011;10344;47.592;9.600;2024-01-06T12:27:16;2.10;;;1.90;;
20369;SDS011;10344;47.592;9.600;2024-01-06T12:29:49;3.03;;;2.60;;
20369;SDS011;10344;47.592;9.600;2024-01-06T12:32:14;4.43;;;3.35;;
20369;SDS011;10344;47.592;9.600;2024-01-06T12:34:40;3.60;;;2.97;;
20369;SDS011;10344;47.592;9.600;2024-01-06T12:37:06;3.55;;;2.92;;
20369;SDS011;10344;47.592;9.600;2024-01-06T12:39:32;3.85;;;2.55;;
20369;SDS011;10344;47.592;9.600;2024-01-06T12:41:58;2.55;;;1.98;;
20369;SDS011;10344;47.592;9.600;2024-01-06T12:44:26;1.60;;;1.50;;
20369;SDS011;10344;47.592;9.600;2024-01-06T12:46:52;1.52;;;1.40;;
20369;SDS011;10344;47.592;9.600;2024-01-06T12:49:18;1.43;;;1.33;;
20369;SDS011;10344;47.592;9.600;2024-01-06T12:51:45;2.03;;;1.40;;
20369;SDS011;10344;47.592;9.600;2024-01-06T12:54:14;1.60;;;1.30;;
20369;SDS011;10344;47.592;9.600;2024-01-06T12:56:42;1.80;;;1.30;;
20369;SDS011;10344;47.592;9.600;2024-01-06T12:59:07;1.50;;;1.30;;
20369;SDS011;10344;47.592;9.600;2024-01-06T13:01:33;1.50;;;1.40;;
20369;SDS011;10344;47.592;9.600;2024-01-06T13:03:59;1.70;;;1.60;;
20369;SDS011;10344;47.592;9.600;2024-01-06T13:06:26;1.48;;;1.30;;
20369;SDS011;10344;47.592;9.600;2024-01-06T13:08:55;1.55;;;1.45;;
20369;SDS011;10344;47.592;9.600;2024-01-06T13:11:24;1.70;;;1.60;;
20369;SDS011;10344;47.592;9.600;2024-01-06T13:13:49;1.40;;;1.30;;
20369;SDS011;10344;47.592;9.600;2024-01-06T13:16:17;1.40;;;1.30;;
20369;SDS011;10344;47.592;9.600;2024-01-06T13:18:43;1.80;;;1.30;;
20369;SDS011;10344;47.592;9.600;2024-01-06T13:21:11;1.45;;;1.35;;
20369;SDS011;10344;47.592;9.600;2024-01-06T13:23:36;1.30;;;1.20;;
20369;SDS011;10344;47.592;9.600;2024-01-06T13:26:02;1.67;;;1.30;;
20369;SDS011;10344;47.592;9.600;2024-01-06T13:28:28;2.53;;;1.40;;
20369;SDS011;10344;47.592;9.600;2024-01-06T13:30:53;1.77;;;1.30;;
20369;SDS011;10344;47.592;9.600;2024-01-06T13:33:19;1.35;;;1.20;;
20369;SDS011;10344;47.592;9.600;2024-01-06T13:35:45;1.47;;;1.00;;
20369;SDS011;10344;47.592;9.600;2024-01-06T13:38:13;1.00;;;0.90;;
20369;SDS011;10344;47.592;9.600;2024-01-06T13:40:41;1.20;;;1.00;;
20369;SDS011;10344;47.592;9.600;2024-01-06T13:43:06;1.40;;;1.10;;
20369;SDS011;10344;47.592;9.600;2024-01-06T13:45:35;1.15;;;1.05;;
20369;SDS011;10344;47.592;9.600;2024-01-06T13:48:03;1.38;;;1.27;;
20369;SDS011;10344;47.592;9.600;2024-01-06T13:50:29;1.50;;;1.33;;
20369;SDS011;10344;47.592;9.600;2024-01-06T13:52:54;1.40;;;1.30;;
20369;SDS011;10344;47.592;9.600;2024-01-06T13:55:20;2.60;;;1.63;;
20369;SDS011;10344;47.592;9.600;2024-01-06T13:57:46;1.40;;;1.30;;
20369;SDS011;10344;47.592;9.600;2024-01-06T14:00:11;1.43;;;1.23;;
20369;SDS011;10344;47.592;9.600;2024-01-06T14:02:40;1.60;;;1.50;;
20369;SDS011;10344;47.592;9.600;2024-01-06T14:05:06;1.70;;;1.60;;
20369;SDS011;10344;47.592;9.600;2024-01-06T14:07:33;1.63;;;1.52;;
20369;SDS011;10344;47.592;9.600;2024-01-06T14:09:59;1.63;;;1.52;;
20369;SDS011;10344;47.592;9.600;2024-01-06T14:12:25;1.63;;;1.43;;
20369;SDS011;10344;47.592;9.600;2024-01-06T14:14:51;1.60;;;1.40;;
20369;SDS011;10344;47.592;9.600;2024-01-06T14:17:16;1.45;;;1.35;;
20369;SDS011;10344;47.592;9.600;2024-01-06T14:19:42;1.52;;;1.42;;
20369;SDS011;10344;47.592;9.600;2024-01-06T14:22:10;2.40;;;1.50;;
20369;SDS011;10344;47.592;9.600;2024-01-06T14:24:35;2.10;;;1.70;;
20369;SDS011;10344;47.592;9.600;2024-01-06T14:27:06;1.60;;;1.50;;
20369;SDS011;10344;47.592;9.600;2024-01-06T14:29:32;1.88;;;1.70;;
20369;SDS011;10344;47.592;9.600;2024-01-06T14:31:57;2.17;;;1.85;;
20369;SDS011;10344;47.592;9.600;2024-01-06T14:34:23;1.95;;;1.60;;
20369;SDS011;10344;47.592;9.600;2024-01-06T14:36:49;1.65;;;1.55;;
20369;SDS011;10344;47.592;9.600;2024-01-06T14:39:17;2.57;;;1.80;;
20369;SDS011;10344;47.592;9.600;2024-01-06T14:41:51;2.22;;;2.00;;
20369;SDS011;10344;47.592;9.600;2024-01-06T14:44:17;1.93;;;1.80;;
20369;SDS011;10344;47.592;9.600;2024-01-06T14:46:45;2.03;;;1.85;;
20369;SDS011;10344;47.592;9.600;2024-01-06T14:49:11;2.20;;;2.00;;
20369;SDS011;10344;47.592;9.600;2024-01-06T14:51:37;1.97;;;1.77;;